createdAt,value
2023-02-13T00:00:46.808Z,9.63
2023-02-13T00:03:14.635Z,8.75
2023-02-13T00:05:41.757Z,9.68
2023-02-13T00:08:08.824Z,9.38
2023-02-13T00:10:37.028Z,8.90
2023-02-13T00:13:04.197Z,8.40
2023-02-13T00:15:31.513Z,8.02
2023-02-13T00:17:58.492Z,7.60
2023-02-13T00:20:25.584Z,8.75
2023-02-13T00:22:52.814Z,8.60
2023-02-13T00:25:19.999Z,7.32
2023-02-13T00:27:47.319Z,7.80
2023-02-13T00:30:14.893Z,7.90
2023-02-13T00:32:42.034Z,8.98
2023-02-13T00:35:09.206Z,9.40
2023-02-13T00:37:36.325Z,9.07
2023-02-13T00:40:03.770Z,8.85
2023-02-13T00:42:30.957Z,9.43
2023-02-13T00:44:58.086Z,9.70
2023-02-13T00:47:25.316Z,9.80
2023-02-13T00:49:52.306Z,8.77
2023-02-13T00:52:19.634Z,5.65
2023-02-13T00:54:47.855Z,5.95
2023-02-13T00:57:15.058Z,5.93
2023-02-13T00:59:42.872Z,6.10
2023-02-13T01:02:10.100Z,6.20
2023-02-13T01:04:37.466Z,6.35
2023-02-13T01:07:04.563Z,6.35
2023-02-13T01:09:31.789Z,6.30
2023-02-13T01:11:58.831Z,6.57
2023-02-13T01:14:26.352Z,6.20
2023-02-13T01:16:53.332Z,5.97
2023-02-13T01:19:20.604Z,5.80
2023-02-13T01:21:47.629Z,6.45
2023-02-13T01:24:14.837Z,6.10
2023-02-13T01:26:41.994Z,6.28
2023-02-13T01:29:12.282Z,6.10
2023-02-13T01:31:40.259Z,5.85
2023-02-13T01:34:07.448Z,6.53
2023-02-13T01:36:34.607Z,6.40
2023-02-13T01:39:01.746Z,6.82
2023-02-13T01:41:28.827Z,6.47
2023-02-13T01:44:01.249Z,7.53
2023-02-13T01:46:34.602Z,6.67
2023-02-13T01:49:13.252Z,6.45
2023-02-13T01:51:41.874Z,6.47
2023-02-13T01:54:23.479Z,6.88
2023-02-13T01:56:55.739Z,7.13
2023-02-13T01:59:29.476Z,6.87
2023-02-13T02:01:58.987Z,6.85
2023-02-13T02:04:32.136Z,6.57
2023-02-13T02:09:39.509Z,5.95
2023-02-13T02:12:33.151Z,6.23
2023-02-13T02:15:01.847Z,6.28
2023-02-13T02:17:32.072Z,6.18
2023-02-13T02:20:13.887Z,5.70
2023-02-13T02:23:37.796Z,5.93
2023-02-13T02:26:20.731Z,5.40
2023-02-13T02:29:08.719Z,5.35
2023-02-13T02:31:58.269Z,5.80
2023-02-13T02:34:54.794Z,5.78
2023-02-13T02:37:31.035Z,6.07
2023-02-13T02:40:07.078Z,5.70
2023-02-13T02:43:07.100Z,5.55
2023-02-13T02:45:51.951Z,5.80
2023-02-13T02:48:47.789Z,5.75
2023-02-13T02:51:26.774Z,5.75
2023-02-13T02:54:45.847Z,5.90
2023-02-13T02:57:23.049Z,5.63
2023-02-13T03:00:16.551Z,5.45
2023-02-13T03:03:02.200Z,5.80
2023-02-13T03:05:50.316Z,5.72
2023-02-13T03:08:38.024Z,5.80
2023-02-13T03:11:24.727Z,6.13
2023-02-13T03:13:53.548Z,5.32
2023-02-13T03:16:43.217Z,5.57
2023-02-13T03:19:42.572Z,4.93
2023-02-13T03:22:46.347Z,4.35
2023-02-13T03:25:38.943Z,3.75
2023-02-13T03:28:45.107Z,2.95
2023-02-13T03:31:24.031Z,3.30
2023-02-13T03:34:15.756Z,2.25
2023-02-13T03:37:35.379Z,2.95
2023-02-13T03:40:21.136Z,2.75
2023-02-13T03:42:51.170Z,3.13
2023-02-13T03:45:44.011Z,2.78
2023-02-13T03:48:33.491Z,3.40
2023-02-13T03:51:02.856Z,3.47
2023-02-13T03:53:34.028Z,3.15
2023-02-13T03:56:21.546Z,3.17
2023-02-13T03:59:11.266Z,3.60
2023-02-13T04:01:39.907Z,3.20
2023-02-13T04:04:20.629Z,3.20
2023-02-13T04:07:00.179Z,3.20
2023-02-13T04:09:29.973Z,3.63
2023-02-13T04:12:27.336Z,3.05
2023-02-13T04:15:17.298Z,2.85
2023-02-13T04:17:51.247Z,3.08
2023-02-13T04:20:19.271Z,3.05
2023-02-13T04:22:48.352Z,3.30
2023-02-13T04:25:18.440Z,3.20
2023-02-13T04:27:45.619Z,3.08
2023-02-13T04:30:13.441Z,3.08
2023-02-13T04:32:40.498Z,2.42
2023-02-13T04:35:08.050Z,3.10
2023-02-13T04:37:35.048Z,2.80
2023-02-13T04:40:02.271Z,2.50
2023-02-13T04:42:29.385Z,2.40
2023-02-13T04:44:56.507Z,2.78
2023-02-13T04:47:23.462Z,3.10
2023-02-13T04:49:50.547Z,2.92
2023-02-13T04:52:18.276Z,2.88
2023-02-13T04:54:45.419Z,3.20
2023-02-13T04:57:12.478Z,3.25
2023-02-13T04:59:39.607Z,3.42
2023-02-13T05:02:06.651Z,3.15
2023-02-13T05:04:33.934Z,3.58
2023-02-13T05:07:00.994Z,4.13
2023-02-13T05:09:28.494Z,3.40
2023-02-13T05:11:55.805Z,4.32
2023-02-13T05:14:22.915Z,3.83
2023-02-13T05:16:50.302Z,3.65
2023-02-13T05:19:17.580Z,4.45
2023-02-13T05:22:03.269Z,4.75
2023-02-13T05:24:30.496Z,5.00
2023-02-13T05:26:57.747Z,4.40
2023-02-13T05:29:24.812Z,4.05
2023-02-13T05:31:54.721Z,4.68
2023-02-13T05:34:23.702Z,4.28
2023-02-13T05:36:51.287Z,4.72
2023-02-13T05:39:18.761Z,4.00
2023-02-13T05:41:46.998Z,4.32
2023-02-13T05:44:14.679Z,4.20
2023-02-13T05:46:43.037Z,4.63
2023-02-13T05:49:11.472Z,5.00
2023-02-13T05:51:38.458Z,5.18
2023-02-13T05:54:05.736Z,5.03
2023-02-13T05:56:32.807Z,5.25
2023-02-13T05:59:00.179Z,5.45
2023-02-13T06:01:27.349Z,5.22
2023-02-13T06:03:54.520Z,5.22
2023-02-13T06:06:22.927Z,5.35
2023-02-13T06:08:50.204Z,7.38
2023-02-13T06:11:17.694Z,5.97
2023-02-13T06:13:44.716Z,6.35
2023-02-13T06:16:12.745Z,7.10
2023-02-13T06:18:40.598Z,6.40
2023-02-13T06:21:08.149Z,6.18
2023-02-13T06:23:35.408Z,5.85
2023-02-13T06:26:04.163Z,5.45
2023-02-13T06:28:31.474Z,6.00
2023-02-13T06:30:59.299Z,7.72
2023-02-13T06:33:26.874Z,7.72
2023-02-13T06:35:53.995Z,7.18
2023-02-13T06:38:21.716Z,6.93
2023-02-13T06:40:49.687Z,6.90
2023-02-13T06:43:18.037Z,6.68
2023-02-13T06:45:47.268Z,5.93
2023-02-13T06:48:14.820Z,6.95
2023-02-13T06:50:41.941Z,7.32
2023-02-13T06:53:09.106Z,4.68
2023-02-13T06:55:36.779Z,5.05
2023-02-13T06:58:04.047Z,5.80
2023-02-13T07:00:31.085Z,3.70
2023-02-13T07:03:06.338Z,4.22
2023-02-13T07:05:33.683Z,3.30
2023-02-13T07:08:00.758Z,3.17
2023-02-13T07:10:27.987Z,3.38
2023-02-13T07:13:05.305Z,3.50
2023-02-13T07:15:34.750Z,4.60
2023-02-13T07:18:02.123Z,7.93
2023-02-13T07:20:29.610Z,8.23
2023-02-13T07:23:01.265Z,8.32
2023-02-13T07:25:29.078Z,7.93
2023-02-13T07:27:56.253Z,8.23
2023-02-13T07:30:23.244Z,8.52
2023-02-13T07:32:51.700Z,7.25
2023-02-13T07:35:18.749Z,8.77
2023-02-13T07:37:45.882Z,9.75
2023-02-13T07:40:13.118Z,9.23
2023-02-13T07:42:40.289Z,7.15
2023-02-13T07:45:07.700Z,7.90
2023-02-13T07:47:35.280Z,8.85
2023-02-13T07:50:06.148Z,8.38
2023-02-13T07:52:33.603Z,7.80
2023-02-13T07:55:00.656Z,7.32
2023-02-13T07:57:27.838Z,7.40
2023-02-13T07:59:54.897Z,7.50
2023-02-13T08:02:22.060Z,7.32
2023-02-13T08:04:49.062Z,6.88
2023-02-13T08:07:17.689Z,6.10
2023-02-13T08:10:04.583Z,5.28
2023-02-13T08:12:35.204Z,6.28
2023-02-13T08:15:02.480Z,5.60
2023-02-13T08:17:29.685Z,5.50
2023-02-13T08:19:57.480Z,5.57
2023-02-13T08:22:24.923Z,5.78
2023-02-13T08:24:52.068Z,3.80
2023-02-13T08:27:19.154Z,3.75
2023-02-13T08:29:46.345Z,3.90
2023-02-13T08:32:13.458Z,3.60
2023-02-13T08:34:40.664Z,3.47
2023-02-13T08:37:07.759Z,3.25
2023-02-13T08:39:34.935Z,3.70
2023-02-13T08:42:01.951Z,3.70
2023-02-13T08:44:29.112Z,3.75
2023-02-13T08:46:56.723Z,3.40
2023-02-13T08:49:24.799Z,3.40
2023-02-13T08:51:51.913Z,3.92
2023-02-13T08:54:18.950Z,3.78
2023-02-13T08:56:46.263Z,3.45
2023-02-13T08:59:13.502Z,3.78
2023-02-13T09:01:40.873Z,3.85
2023-02-13T09:04:08.022Z,3.92
2023-02-13T09:06:35.270Z,4.20
2023-02-13T09:09:02.434Z,4.18
2023-02-13T09:11:29.669Z,4.35
2023-02-13T09:13:56.717Z,4.43
2023-02-13T09:16:24.040Z,4.03
2023-02-13T09:18:51.821Z,4.10
2023-02-13T09:21:22.909Z,3.78
2023-02-13T09:23:52.343Z,4.05
2023-02-13T09:26:20.643Z,3.30
2023-02-13T09:28:48.186Z,3.60
2023-02-13T09:31:22.131Z,3.65
2023-02-13T09:33:50.539Z,4.22
2023-02-13T09:36:22.713Z,4.30
2023-02-13T09:38:54.813Z,3.83
2023-02-13T09:41:24.603Z,3.78
2023-02-13T09:44:00.499Z,3.58
2023-02-13T09:46:34.525Z,3.78
2023-02-13T09:49:17.193Z,3.65
2023-02-13T09:51:47.357Z,3.50
2023-02-13T09:54:19.276Z,3.67
2023-02-13T09:57:01.179Z,3.60
2023-02-13T09:59:49.930Z,4.05
2023-02-13T10:02:46.371Z,3.90
2023-02-13T10:05:34.839Z,4.63
2023-02-13T10:08:29.125Z,4.07
2023-02-13T10:11:33.310Z,4.35
2023-02-13T10:17:02.492Z,3.30
2023-02-13T10:19:35.850Z,3.65
2023-02-13T10:24:48.912Z,2.97
2023-02-13T10:27:28.896Z,2.90
2023-02-13T10:30:09.319Z,3.78
2023-02-13T10:33:11.377Z,3.20
2023-02-13T10:35:39.603Z,2.67
2023-02-13T10:38:25.360Z,2.88
2023-02-13T10:41:13.767Z,3.00
2023-02-13T10:43:55.943Z,3.60
2023-02-13T10:46:37.458Z,3.38
2023-02-13T10:49:36.891Z,3.25
2023-02-13T10:52:03.914Z,2.65
2023-02-13T10:55:00.970Z,2.70
2023-02-13T10:57:53.711Z,2.97
2023-02-13T11:00:54.047Z,2.80
2023-02-13T11:03:24.310Z,2.83
2023-02-13T11:05:52.322Z,2.67
2023-02-13T11:08:38.044Z,3.00
2023-02-13T11:11:25.196Z,3.72
2023-02-13T11:14:36.764Z,3.40
2023-02-13T11:17:07.630Z,3.00
2023-02-13T11:19:47.044Z,3.15
2023-02-13T11:22:17.783Z,3.47
2023-02-13T11:24:55.749Z,2.53
2023-02-13T11:27:34.049Z,2.97
2023-02-13T11:30:28.891Z,3.30
2023-02-13T11:33:01.764Z,2.78
2023-02-13T11:35:35.162Z,2.75
2023-02-13T11:40:47.737Z,2.70
2023-02-13T11:43:39.259Z,3.05
2023-02-13T11:46:19.052Z,2.80
2023-02-13T11:49:07.799Z,3.13
2023-02-13T11:51:44.146Z,3.60
2023-02-13T11:54:33.154Z,2.55
2023-02-13T11:57:19.310Z,3.40
2023-02-13T11:59:48.974Z,3.00
2023-02-13T12:02:20.865Z,2.75
2023-02-13T12:04:54.476Z,3.40
2023-02-13T12:07:32.557Z,3.00
2023-02-13T12:10:12.171Z,3.40
2023-02-13T12:12:47.709Z,3.30
2023-02-13T12:15:31.385Z,3.60
2023-02-13T12:18:24.754Z,2.97
2023-02-13T12:21:14.856Z,3.03
2023-02-13T12:23:56.323Z,3.20
2023-02-13T12:26:38.774Z,3.00
2023-02-13T12:29:28.212Z,3.40
2023-02-13T12:32:16.650Z,2.92
2023-02-13T12:35:05.423Z,2.72
2023-02-13T12:37:44.009Z,2.85
2023-02-13T12:40:38.935Z,3.03
2023-02-13T12:43:24.725Z,3.00
2023-02-13T12:46:01.785Z,2.50
2023-02-13T12:48:35.526Z,2.83
2023-02-13T12:51:13.253Z,3.75
2023-02-13T12:53:52.108Z,3.10
2023-02-13T12:56:53.839Z,2.70
2023-02-13T12:59:33.367Z,2.75
2023-02-13T13:02:24.849Z,3.10
2023-02-13T13:05:15.201Z,3.30
2023-02-13T13:08:09.837Z,2.95
2023-02-13T13:10:49.739Z,2.78
2023-02-13T13:13:41.801Z,2.78
2023-02-13T13:16:36.845Z,3.05
2023-02-13T13:19:31.733Z,2.75
2023-02-13T13:22:07.696Z,2.72
2023-02-13T13:25:05.744Z,3.17
2023-02-13T13:27:55.944Z,3.53
2023-02-13T13:30:34.517Z,3.25
2023-02-13T13:33:21.139Z,2.75
2023-02-13T13:36:14.904Z,3.40
2023-02-13T13:38:52.342Z,3.00
2023-02-13T13:41:30.984Z,2.80
2023-02-13T13:44:39.593Z,3.20
2023-02-13T13:47:35.543Z,3.55
2023-02-13T13:50:05.942Z,3.00
2023-02-13T13:52:35.363Z,3.00
2023-02-13T13:55:04.595Z,2.92
2023-02-13T13:57:34.456Z,3.22
2023-02-13T14:00:12.681Z,3.13
2023-02-13T14:03:09.786Z,3.30
2023-02-13T14:05:58.758Z,3.33
2023-02-13T14:08:40.731Z,3.38
2023-02-13T14:11:46.840Z,3.78
2023-02-13T14:14:29.378Z,3.38
2023-02-13T14:16:58.700Z,3.25
2023-02-13T14:19:26.170Z,3.20
2023-02-13T14:21:54.912Z,3.88
2023-02-13T14:24:25.240Z,3.53
2023-02-13T14:27:05.716Z,3.67
2023-02-13T14:29:34.450Z,3.88
2023-02-13T14:32:08.428Z,3.63
2023-02-13T14:34:38.597Z,3.38
2023-02-13T14:37:20.874Z,3.50
2023-02-13T14:40:27.467Z,3.35
2023-02-13T14:43:08.204Z,3.92
2023-02-13T14:45:48.159Z,3.60
2023-02-13T14:48:16.246Z,3.00
2023-02-13T14:50:49.353Z,3.30
2023-02-13T14:53:51.309Z,3.55
2023-02-13T14:56:22.701Z,4.00
2023-02-13T14:59:07.585Z,3.58
2023-02-13T15:01:41.026Z,3.08
2023-02-13T15:06:43.660Z,3.30
2023-02-13T15:09:27.968Z,3.80
2023-02-13T15:11:55.093Z,3.88
2023-02-13T15:14:36.036Z,3.53
2023-02-13T15:17:27.568Z,3.75
2023-02-13T15:19:59.374Z,3.47
2023-02-13T15:22:42.331Z,3.40
2023-02-13T15:25:09.846Z,3.80
2023-02-13T15:27:43.582Z,3.60
2023-02-13T15:30:38.100Z,4.32
2023-02-13T15:33:18.299Z,3.88
2023-02-13T15:35:46.146Z,4.05
2023-02-13T15:38:32.116Z,4.30
2023-02-13T15:41:04.686Z,4.38
2023-02-13T15:43:36.905Z,4.40
2023-02-13T15:46:19.120Z,4.30
2023-02-13T15:48:47.166Z,4.43
2023-02-13T15:51:26.057Z,4.10
2023-02-13T15:54:06.427Z,4.28
2023-02-13T15:56:34.728Z,4.68
2023-02-13T15:59:03.044Z,4.78
2023-02-13T16:01:31.291Z,4.22
2023-02-13T16:04:07.017Z,4.50
2023-02-13T16:06:34.984Z,5.07
2023-02-13T16:09:03.064Z,4.72
2023-02-13T16:11:32.382Z,5.10
2023-02-13T16:14:28.286Z,4.60
2023-02-13T16:17:02.199Z,4.82
2023-02-13T16:19:38.205Z,4.22
2023-02-13T16:22:16.343Z,4.38
2023-02-13T16:24:50.910Z,3.97
2023-02-13T16:27:27.068Z,4.78
2023-02-13T16:30:01.234Z,4.30
2023-02-13T16:32:38.991Z,4.63
2023-02-13T16:35:26.280Z,5.55
2023-02-13T16:37:57.287Z,5.15
2023-02-13T16:40:42.305Z,5.93
2023-02-13T16:43:37.458Z,5.93
2023-02-13T16:46:19.420Z,5.60
2023-02-13T16:48:58.585Z,5.28
2023-02-13T16:51:31.363Z,5.80
2023-02-13T16:54:05.695Z,5.00
2023-02-13T16:56:54.183Z,5.88
2023-02-13T16:59:23.785Z,6.10
2023-02-13T17:02:17.222Z,5.97
2023-02-13T17:04:47.379Z,5.97
2023-02-13T17:07:17.295Z,5.90
2023-02-13T17:09:44.508Z,5.75
2023-02-13T17:12:18.331Z,6.18
2023-02-13T17:14:46.262Z,6.45
2023-02-13T17:17:19.444Z,6.72
2023-02-13T17:19:47.080Z,6.55
2023-02-13T17:22:39.741Z,6.18
2023-02-13T17:25:12.455Z,6.75
2023-02-13T17:27:39.528Z,7.55
2023-02-13T17:30:07.395Z,8.23
2023-02-13T17:32:34.397Z,8.00
2023-02-13T17:35:01.450Z,7.93
2023-02-13T17:37:30.180Z,8.25
2023-02-13T17:39:57.181Z,7.65
2023-02-13T17:42:29.261Z,7.82
2023-02-13T17:44:58.654Z,7.82
2023-02-13T17:47:26.964Z,7.03
2023-02-13T17:50:01.977Z,7.25
2023-02-13T17:52:32.120Z,6.88
2023-02-13T17:54:59.286Z,6.80
2023-02-13T17:57:26.426Z,6.28
2023-02-13T17:59:53.430Z,6.35
2023-02-13T18:02:22.771Z,6.10
2023-02-13T18:04:50.785Z,5.88
2023-02-13T18:07:20.577Z,6.45
2023-02-13T18:09:48.051Z,7.85
2023-02-13T18:12:19.156Z,7.03
2023-02-13T18:14:46.702Z,7.53
2023-02-13T18:17:13.882Z,8.00
2023-02-13T18:19:41.391Z,8.00
2023-02-13T18:22:10.017Z,7.72
2023-02-13T18:24:39.364Z,8.20
2023-02-13T18:27:07.764Z,7.97
2023-02-13T18:29:38.417Z,7.30
2023-02-13T18:32:09.889Z,7.63
2023-02-13T18:34:38.255Z,7.93
2023-02-13T18:37:06.497Z,6.60
2023-02-13T18:39:34.336Z,7.28
2023-02-13T18:42:01.681Z,7.10
2023-02-13T18:44:29.185Z,6.90
2023-02-13T18:46:56.517Z,6.88
2023-02-13T18:49:23.780Z,6.80
2023-02-13T18:51:51.664Z,7.57
2023-02-13T18:54:18.959Z,7.38
2023-02-13T18:56:46.286Z,6.93
2023-02-13T18:59:14.047Z,7.38
2023-02-13T19:01:41.651Z,6.70
2023-02-13T19:04:10.420Z,7.65
2023-02-13T19:06:40.548Z,7.28
2023-02-13T19:09:07.993Z,7.78
2023-02-13T19:11:35.774Z,7.35
2023-02-13T19:14:03.053Z,7.20
2023-02-13T19:16:33.134Z,6.65
2023-02-13T19:19:02.400Z,6.88
2023-02-13T19:21:31.746Z,7.38
2023-02-13T19:23:58.996Z,8.25
2023-02-13T19:26:27.276Z,6.85
2023-02-13T19:28:56.097Z,7.72
2023-02-13T19:31:33.289Z,7.80
2023-02-13T19:34:03.147Z,8.07
2023-02-13T19:36:30.401Z,8.82
2023-02-13T19:39:01.301Z,8.75
2023-02-13T19:41:29.253Z,8.63
2023-02-13T19:43:56.583Z,8.18
2023-02-13T19:46:28.978Z,8.65
2023-02-13T19:48:56.948Z,8.10
2023-02-13T19:51:27.805Z,8.77
2023-02-13T19:54:00.456Z,8.55
2023-02-13T19:56:29.156Z,8.20
2023-02-13T19:58:56.874Z,8.82
2023-02-13T20:01:26.362Z,7.50
2023-02-13T20:03:54.406Z,8.15
2023-02-13T20:06:36.133Z,8.43
2023-02-13T20:09:13.971Z,7.60
2023-02-13T20:11:42.524Z,8.15
2023-02-13T20:14:15.206Z,7.22
2023-02-13T20:16:45.760Z,7.60
2023-02-13T20:19:14.322Z,7.50
2023-02-13T20:21:42.771Z,7.78
2023-02-13T20:24:11.551Z,8.60
2023-02-13T20:26:39.812Z,8.50
2023-02-13T20:29:07.713Z,8.27
2023-02-13T20:31:36.752Z,8.50
2023-02-13T20:34:06.566Z,8.85
2023-02-13T20:36:34.446Z,9.13
2023-02-13T20:39:03.927Z,8.68
2023-02-13T20:41:33.917Z,9.38
2023-02-13T20:44:07.399Z,9.73
2023-02-13T20:49:03.538Z,9.40
2023-02-13T20:51:30.955Z,9.82
2023-02-13T20:53:59.186Z,9.63
2023-02-13T20:56:28.424Z,9.98
2023-02-13T20:58:58.372Z,9.90
2023-02-13T21:01:28.532Z,9.98
2023-02-13T21:03:56.797Z,10.30
2023-02-13T21:06:42.395Z,10.05
2023-02-13T21:09:10.186Z,9.70
2023-02-13T21:11:39.532Z,9.50
2023-02-13T21:14:07.422Z,9.98
2023-02-13T21:16:37.502Z,9.93
2023-02-13T21:19:13.814Z,10.20
2023-02-13T21:21:44.243Z,9.98
2023-02-13T21:24:21.048Z,10.43
2023-02-13T21:26:51.989Z,9.77
2023-02-13T21:29:19.491Z,9.85
2023-02-13T21:31:48.007Z,9.02
2023-02-13T21:34:18.369Z,8.82
2023-02-13T21:36:46.589Z,10.43
2023-02-13T21:39:13.967Z,10.82
2023-02-13T21:41:43.021Z,9.70
2023-02-13T21:44:15.460Z,9.35
2023-02-13T21:46:44.327Z,10.18
2023-02-13T21:49:17.633Z,9.98
2023-02-13T21:51:45.341Z,9.48
2023-02-13T21:54:12.789Z,9.98
2023-02-13T21:56:42.473Z,9.90
2023-02-13T21:59:14.389Z,9.30
2023-02-13T22:01:47.853Z,8.27
2023-02-13T22:04:15.352Z,10.05
2023-02-13T22:06:42.454Z,9.50
2023-02-13T22:09:12.260Z,10.02
2023-02-13T22:11:40.039Z,9.20
2023-02-13T22:14:10.841Z,10.00
2023-02-13T22:16:40.201Z,9.85
2023-02-13T22:19:07.869Z,10.32
2023-02-13T22:21:36.625Z,10.07
2023-02-13T22:24:04.040Z,9.88
2023-02-13T22:26:34.834Z,10.32
2023-02-13T22:29:06.975Z,9.98
2023-02-13T22:31:35.667Z,9.50
2023-02-13T22:34:05.320Z,10.15
2023-02-13T22:36:35.188Z,10.50
2023-02-13T22:39:02.509Z,10.48
2023-02-13T22:41:29.896Z,10.43
2023-02-13T22:43:57.788Z,11.25
2023-02-13T22:46:32.497Z,10.60
2023-02-13T22:49:00.125Z,11.00
2023-02-13T22:51:32.978Z,10.60
2023-02-13T22:54:00.693Z,10.50
2023-02-13T22:56:29.275Z,11.18
2023-02-13T22:58:56.979Z,10.80
2023-02-13T23:01:25.746Z,12.35
2023-02-13T23:03:52.952Z,11.73
2023-02-13T23:06:20.629Z,11.15
2023-02-13T23:08:52.920Z,10.25
2023-02-13T23:11:44.028Z,11.57
2023-02-13T23:14:11.910Z,11.00
2023-02-13T23:16:59.433Z,10.65
2023-02-13T23:19:27.790Z,11.45
2023-02-13T23:21:54.971Z,10.45
2023-02-13T23:24:22.213Z,10.57
2023-02-13T23:26:49.222Z,10.38
2023-02-13T23:29:16.324Z,9.77
2023-02-13T23:31:43.496Z,10.15
2023-02-13T23:34:10.724Z,11.05
2023-02-13T23:36:37.876Z,11.38
2023-02-13T23:39:04.989Z,11.10
2023-02-13T23:41:31.982Z,11.02
2023-02-13T23:43:58.966Z,10.25
2023-02-13T23:46:26.339Z,10.63
2023-02-13T23:48:53.422Z,10.30
2023-02-13T23:51:23.239Z,10.52
2023-02-13T23:53:50.284Z,10.75
2023-02-13T23:56:17.405Z,10.82
2023-02-13T23:58:44.435Z,11.40
